Gulf Winds — WDH8834 — position and weather

sailwx.info

Track history (hours):
 
Tides and Currents Weather Stations Pressure Air Temp Water Temp Dewpoint Dewpoint Depression Visibility Wind Speed Wind Dir Waves Ship Positions

Gulf Winds

Owner: HIGHLAND LIGHT SEAFOODS, LLC, SEATTLE, WA. More information available from US FCC via Universal Licensing System and Coast Guard Vessel Documentation Center.

Last reported at 2018-Apr-07 20:07 UTC. Time now 2018-Apr-19 10:13 UTC.
Position N 58°14' W 136°20'.
Warning: this ship's position is 11 days out of date.

Length 34 m.

MMSI: 366869780.

Date/timePositionNaut miles runAvg speedWind from/ knotsBaromVisibWave heightAir tempDewpointWater temp
2018-Apr-07 20:07N 58°14' W 136°20'1 7.3
2018-Apr-07 20:00N 58°14' W 136°18'6 8.7
2018-Apr-07 19:18N 58°15' W 136°07'3 9.4
2018-Apr-07 19:00N 58°15' W 136°02'4 9.0
2018-Apr-07 18:30N 58°17' W 135°53'4 8.7
2018-Apr-07 18:00N 58°18' W 135°45'7 8.5
2018-Apr-07 17:08N 58°14' W 135°33'2 8.4
2018-Apr-07 16:56N 58°13' W 135°31'  
2018-Apr-03 13:39N 54°36' W 130°42'2 8.1
2018-Apr-03 13:24N 54°35' W 130°40'3 8.1
2018-Apr-03 12:59N 54°31' W 130°39'4 8.3
2018-Apr-03 12:30N 54°27' W 130°38'4 8.1
2018-Apr-03 11:59N 54°23' W 130°37'4 8.3
2018-Apr-03 11:30N 54°19' W 130°34'4 8.8
2018-Apr-03 11:00N 54°16' W 130°31'4 8.9
2018-Apr-03 10:30N 54°12' W 130°27'4 8.8
2018-Apr-03 10:00N 54°08' W 130°24'4 8.2
2018-Apr-03 09:30N 54°05' W 130°18'5 9.1
2018-Apr-03 09:00N 54°01' W 130°14'4 8.8
2018-Apr-03 08:30N 53°57' W 130°12'4 8.2
2018-Apr-03 08:00N 53°54' W 130°08'4 8.8
2018-Apr-03 07:30N 53°51' W 130°02'101 7.4
2018-Apr-02 17:54N 52°27' W 128°28'15 6.7
2018-Apr-02 15:44N 52°15' W 128°15'2 8.2
2018-Apr-02 15:30N 52°14' W 128°12'5 8.0
2018-Apr-02 14:56N 52°11' W 128°06'3 7.4
2018-Apr-02 14:30N 52°08' W 128°08'4 7.3
2018-Apr-02 14:00N 52°05' W 128°05'4 8.4
2018-Apr-02 13:30N 52°04' W 127°58'3 6.8
2018-Apr-02 13:00N 52°01' W 127°56'3 6.9
2018-Apr-02 12:30N 51°58' W 127°56'4 7.1
2018-Apr-02 12:00N 51°54' W 127°56'4 7.8
2018-Apr-02 11:30N 51°50' W 127°56'4 7.7
2018-Apr-02 11:00N 51°47' W 127°55'4 8.0
2018-Apr-02 10:30N 51°43' W 127°55'4 8.1
2018-Apr-02 10:00N 51°39' W 127°54'4 8.1
2018-Apr-02 09:30N 51°35' W 127°52'4 7.8
2018-Apr-02 09:00N 51°31' W 127°51'4 7.7
2018-Apr-02 08:30N 51°27' W 127°51'5 7.8
2018-Apr-02 07:53N 51°22' W 127°51'3 7.6
2018-Apr-02 07:30N 51°19' W 127°51'5 7.5
2018-Apr-02 06:49N 51°14' W 127°51'4 7.2
2018-Apr-02 06:19N 51°11' W 127°50'2 6.5
2018-Apr-02 06:00N 51°09' W 127°48'3 6.5
2018-Apr-02 05:30N 51°07' W 127°44'4 7.3
2018-Apr-02 05:00N 51°04' W 127°40'4 7.2
2018-Apr-02 04:30N 51°01' W 127°36'4 7.5
2018-Apr-02 04:01N 50°59' W 127°32'4 7.7
2018-Apr-02 03:30N 50°56' W 127°27'4 7.8
2018-Apr-02 03:00N 50°54' W 127°23'4 7.9
2018-Apr-02 02:30N 50°52' W 127°17'4 8.1
2018-Apr-02 02:00N 50°50' W 127°12'4 8.4
2018-Apr-02 01:30N 50°48' W 127°06'4 8.2
2018-Apr-02 01:00N 50°45' W 127°01'65 7.7
2018-Apr-01 16:33N 50°20' W 125°26'4 9.3
2018-Apr-01 16:06N 50°16' W 125°24'1 9.6
2018-Apr-01 16:00N 50°16' W 125°23'5 9.7
2018-Apr-01 15:30N 50°11' W 125°22'510.5
2018-Apr-01 15:00N 50°06' W 125°18'510.8
2018-Apr-01 14:31N 50°02' W 125°13'5 9.3
2018-Apr-01 13:59N 49°58' W 125°09'3 6.5
2018-Apr-01 13:30N 49°55' W 125°06'4 8.0
2018-Apr-01 13:01N 49°53' W 125°02'4 7.9
2018-Apr-01 12:30N 49°50' W 124°57'4 7.6
2018-Apr-01 12:00N 49°47' W 124°53'4 7.1
2018-Apr-01 11:29N 49°45' W 124°49'4 7.1
2018-Apr-01 10:59N 49°42' W 124°45'4 7.9
2018-Apr-01 10:30N 49°39' W 124°41'6 7.7
2018-Apr-01 09:45N 49°35' W 124°35'46 8.0
2018-Apr-01 03:58N 49°10' W 123°35'11 7.7
2018-Apr-01 02:30N 49°04' W 123°21'31 8.2
2018-Mar-31 22:42N 48°44' W 122°44'2 9.6
2018-Mar-31 22:30N 48°42' W 122°43'5 9.2
2018-Mar-31 22:00N 48°37' W 122°44'5 9.5
2018-Mar-31 21:31N 48°33' W 122°45'5 8.9
2018-Mar-31 21:00N 48°28' W 122°44'30 8.0
2018-Mar-31 17:15N 47°59' W 122°35'310.1
2018-Mar-31 16:59N 47°57' W 122°32'4 9.0
2018-Mar-31 16:30N 47°53' W 122°28'4 8.7
2018-Mar-31 16:00N 47°49' W 122°26'4 8.4
2018-Mar-31 15:31N 47°45' W 122°25'4 8.1
2018-Mar-31 15:00N 47°41' W 122°25'1 2.1
2018-Mar-31 14:19N 47°40' W 122°23'0 0.1
2018-Mar-31 13:48N 47°40' W 122°23'0 0.1
2018-Mar-31 13:27N 47°40' W 122°23'0 0.0
2018-Mar-31 12:58N 47°40' W 122°23'0 0.0
2018-Mar-31 12:28N 47°40' W 122°23'0 0.1
2018-Mar-31 11:58N 47°40' W 122°23'0 0.1
2018-Mar-31 11:29N 47°40' W 122°23'0 0.1
2018-Mar-31 10:59N 47°40' W 122°23'0 0.0
2018-Mar-31 10:29N 47°40' W 122°23'0 0.1
2018-Mar-31 10:00N 47°40' W 122°23'0 0.1
2018-Mar-31 09:30N 47°40' W 122°23'0 0.0
2018-Mar-31 09:00N 47°40' W 122°23'0 0.1
2018-Mar-31 08:31N 47°40' W 122°23'0 0.0
2018-Mar-31 07:58N 47°40' W 122°23'0 0.0
2018-Mar-31 07:28N 47°40' W 122°23'0 0.0
2018-Mar-31 06:59N 47°40' W 122°23'0 0.0
2018-Mar-31 06:29N 47°40' W 122°23'0 0.0
2018-Mar-31 05:59N 47°40' W 122°23'0 0.0
2018-Mar-31 05:30N 47°40' W 122°23'0 0.1
2018-Mar-31 05:00N 47°40' W 122°23'0 0.0
2018-Mar-31 04:30N 47°40' W 122°23'0 0.0
2018-Mar-31 04:01N 47°40' W 122°23'0 0.1
2018-Mar-31 03:28N 47°40' W 122°23'0 0.1
2018-Mar-31 02:58N 47°40' W 122°23'0 0.1
2018-Mar-31 02:29N 47°40' W 122°23'0 0.1
2018-Mar-31 01:56N 47°40' W 122°23'0 0.0
2018-Mar-31 01:29N 47°40' W 122°23'0 0.0
2018-Mar-31 00:57N 47°40' W 122°23'0 0.0
2018-Mar-31 00:30N 47°40' W 122°23'0 0.0
2018-Mar-31 00:00N 47°40' W 122°23'0 0.0
2018-Mar-30 23:31N 47°40' W 122°23'0 0.0
2018-Mar-30 22:58N 47°40' W 122°23'0 0.0
2018-Mar-30 22:28N 47°40' W 122°23'0 0.1
2018-Mar-30 21:56N 47°40' W 122°23'0 0.0
2018-Mar-30 21:29N 47°40' W 122°23'0 0.0
2018-Mar-30 20:59N 47°40' W 122°23'0 0.0
2018-Mar-30 20:29N 47°40' W 122°23'0 0.0
2018-Mar-30 19:57N 47°40' W 122°23'0 0.0
2018-Mar-30 19:18N 47°40' W 122°23'0 0.0
2018-Mar-30 19:00N 47°40' W 122°23'0 0.1
2018-Mar-30 18:28N 47°40' W 122°23'0 0.0
2018-Mar-30 17:55N 47°40' W 122°23'0 0.1
2018-Mar-30 17:28N 47°40' W 122°23'0 0.1
2018-Mar-30 16:53N 47°40' W 122°23'0 0.1
2018-Mar-30 16:26N 47°40' W 122°23'0 0.0
2018-Mar-30 15:59N 47°40' W 122°23'0 0.0
2018-Mar-30 15:30N 47°40' W 122°23'0 0.1
2018-Mar-30 14:57N 47°40' W 122°23'0 0.1
2018-Mar-30 14:30N 47°40' W 122°23'0 0.0
2018-Mar-30 13:58N 47°40' W 122°23'0 0.0
2018-Mar-30 13:25N 47°40' W 122°23'0 0.1
2018-Mar-30 12:59N 47°40' W 122°23'0 0.1
2018-Mar-30 12:29N 47°40' W 122°23'0 0.1
2018-Mar-30 11:53N 47°40' W 122°23'0 0.0
2018-Mar-30 11:29N 47°40' W 122°23'0 0.1
2018-Mar-30 10:57N 47°40' W 122°23'0 0.0
2018-Mar-30 10:30N 47°40' W 122°23'0 0.1
2018-Mar-30 09:55N 47°40' W 122°23'0 0.1
2018-Mar-30 09:25N 47°40' W 122°23'0 0.0
2018-Mar-30 08:49N 47°40' W 122°23'0 0.1
2018-Mar-30 08:28N 47°40' W 122°23'0 0.0
2018-Mar-30 07:59N 47°40' W 122°23'0 0.1
2018-Mar-30 07:26N 47°40' W 122°23'0 0.0
2018-Mar-30 06:59N 47°40' W 122°23'0 0.1
2018-Mar-30 06:27N 47°40' W 122°23'0 0.1
2018-Mar-30 06:00N 47°40' W 122°23'0 0.0
2018-Mar-30 05:27N 47°40' W 122°23'0 0.0
2018-Mar-30 04:55N 47°40' W 122°23'0 0.0
2018-Mar-30 04:28N 47°40' W 122°23'0 0.1
2018-Mar-30 03:55N 47°40' W 122°23'0 0.0
2018-Mar-30 03:26N 47°40' W 122°23'0 0.0
2018-Mar-30 02:44N 47°40' W 122°23'0 0.2
2018-Mar-30 02:29N 47°40' W 122°23'0 0.0
2018-Mar-30 01:57N 47°40' W 122°23'0 0.0
2018-Mar-30 01:30N 47°40' W 122°23'0 0.1
2018-Mar-30 00:58N 47°40' W 122°23'0 0.1
2018-Mar-30 00:28N 47°40' W 122°23'0 0.1
2018-Mar-29 23:58N 47°40' W 122°23'0 0.0
2018-Mar-29 23:28N 47°40' W 122°23'0 0.0
2018-Mar-29 22:59N 47°40' W 122°23'0 0.1
2018-Mar-29 22:29N 47°40' W 122°23'0 0.0
2018-Mar-29 21:57N 47°40' W 122°23'0 0.0
2018-Mar-29 21:30N 47°40' W 122°23'0 0.1
2018-Mar-29 21:00N 47°40' W 122°23'0 0.1
2018-Mar-29 20:30N 47°40' W 122°23'0 0.0
2018-Mar-29 19:58N 47°40' W 122°23'0 0.1
2018-Mar-29 19:28N 47°40' W 122°23'0 0.1
2018-Mar-29 18:58N 47°40' W 122°23'0 0.0
2018-Mar-29 18:29N 47°40' W 122°23'0 0.1
2018-Mar-29 17:56N 47°40' W 122°23'0 0.1
2018-Mar-29 17:29N 47°40' W 122°23'0 0.1
2018-Mar-29 17:00N 47°40' W 122°23'0 0.1
2018-Mar-29 16:24N 47°40' W 122°23'0 0.0
2018-Mar-29 16:00N 47°40' W 122°23'0 0.0
2018-Mar-29 15:28N 47°40' W 122°23'0 0.1
2018-Mar-29 14:58N 47°40' W 122°23'0 0.0
2018-Mar-29 14:28N 47°40' W 122°23'0 0.1
2018-Mar-29 13:59N 47°40' W 122°23'0 0.0
2018-Mar-29 13:29N 47°40' W 122°23'0 0.0
2018-Mar-29 12:59N 47°40' W 122°23'0 0.0
2018-Mar-29 12:27N 47°40' W 122°23'0 0.1
2018-Mar-29 12:00N 47°40' W 122°23'0 0.1
2018-Mar-29 11:30N 47°40' W 122°23'0 0.0
2018-Mar-29 10:58N 47°40' W 122°23'0 0.0
2018-Mar-29 10:28N 47°40' W 122°23'0 0.0
2018-Mar-29 09:58N 47°40' W 122°23'0 0.0
2018-Mar-29 09:26N 47°40' W 122°23'0 0.0
2018-Mar-29 08:53N 47°40' W 122°23'0 0.0
2018-Mar-29 08:24N 47°40' W 122°23'0 0.0
2018-Mar-29 08:00N 47°40' W 122°23'0 0.0
2018-Mar-29 07:27N 47°40' W 122°23'0 0.1
2018-Mar-29 07:00N 47°40' W 122°23'0 0.0
2018-Mar-29 06:25N 47°40' W 122°23'0 0.1
2018-Mar-29 05:58N 47°40' W 122°23'0 0.1
2018-Mar-29 05:28N 47°40' W 122°23'0 0.0
2018-Mar-29 04:59N 47°40' W 122°23'0 0.0
2018-Mar-29 04:29N 47°40' W 122°23'0 0.0
2018-Mar-29 03:59N 47°40' W 122°23'0 0.0
2018-Mar-29 03:30N 47°40' W 122°23'0 0.0
2018-Mar-29 03:00N 47°40' W 122°23'0 0.1
2018-Mar-29 02:30N 47°40' W 122°23'0 0.0
2018-Mar-29 01:58N 47°40' W 122°23'0 0.1
2018-Mar-29 01:28N 47°40' W 122°23'0 0.0
2018-Mar-29 00:58N 47°40' W 122°23'0 0.0
2018-Mar-29 00:29N 47°40' W 122°23'0 0.0
2018-Mar-28 23:56N 47°40' W 122°23'0 0.1
2018-Mar-28 23:29N 47°40' W 122°23'0 0.1
2018-Mar-28 23:00N 47°40' W 122°23'0 0.0
2018-Mar-28 22:30N 47°40' W 122°23'0 0.0
2018-Mar-28 21:58N 47°40' W 122°23'0 0.1
2018-Mar-28 21:25N 47°40' W 122°23'0 0.1
2018-Mar-28 20:58N 47°40' W 122°23'0 0.0
2018-Mar-28 20:29N 47°40' W 122°23'  
Track history (hours):
 
Tides and Currents Weather Stations Pressure Air Temp Water Temp Dewpoint Dewpoint Depression Visibility Wind Speed Wind Dir Waves Ship Positions

Gulf Winds

Owner: HIGHLAND LIGHT SEAFOODS, LLC, SEATTLE, WA. More information available from US FCC via Universal Licensing System and Coast Guard Vessel Documentation Center.

Last reported at 2018-Apr-07 20:07 UTC. Time now 2018-Apr-19 10:13 UTC.
Position N 58°14' W 136°20'.
Warning: this ship's position is 11 days out of date.

Length 34 m.

MMSI: 366869780.

Date/timePositionNaut miles runAvg speedWind from/ knotsBaromVisibWave heightAir tempDewpointWater temp
2018-Apr-07 20:07N 58°14' W 136°20'1 7.3
2018-Apr-07 20:00N 58°14' W 136°18'6 8.7
2018-Apr-07 19:18N 58°15' W 136°07'3 9.4
2018-Apr-07 19:00N 58°15' W 136°02'4 9.0
2018-Apr-07 18:30N 58°17' W 135°53'4 8.7
2018-Apr-07 18:00N 58°18' W 135°45'7 8.5
2018-Apr-07 17:08N 58°14' W 135°33'2 8.4
2018-Apr-07 16:56N 58°13' W 135°31'  
2018-Apr-03 13:39N 54°36' W 130°42'2 8.1
2018-Apr-03 13:24N 54°35' W 130°40'3 8.1
2018-Apr-03 12:59N 54°31' W 130°39'4 8.3
2018-Apr-03 12:30N 54°27' W 130°38'4 8.1
2018-Apr-03 11:59N 54°23' W 130°37'4 8.3
2018-Apr-03 11:30N 54°19' W 130°34'4 8.8
2018-Apr-03 11:00N 54°16' W 130°31'4 8.9
2018-Apr-03 10:30N 54°12' W 130°27'4 8.8
2018-Apr-03 10:00N 54°08' W 130°24'4 8.2
2018-Apr-03 09:30N 54°05' W 130°18'5 9.1
2018-Apr-03 09:00N 54°01' W 130°14'4 8.8
2018-Apr-03 08:30N 53°57' W 130°12'4 8.2
2018-Apr-03 08:00N 53°54' W 130°08'4 8.8
2018-Apr-03 07:30N 53°51' W 130°02'101 7.4
2018-Apr-02 17:54N 52°27' W 128°28'15 6.7
2018-Apr-02 15:44N 52°15' W 128°15'2 8.2
2018-Apr-02 15:30N 52°14' W 128°12'5 8.0
2018-Apr-02 14:56N 52°11' W 128°06'3 7.4
2018-Apr-02 14:30N 52°08' W 128°08'4 7.3
2018-Apr-02 14:00N 52°05' W 128°05'4 8.4
2018-Apr-02 13:30N 52°04' W 127°58'3 6.8
2018-Apr-02 13:00N 52°01' W 127°56'3 6.9
2018-Apr-02 12:30N 51°58' W 127°56'4 7.1
2018-Apr-02 12:00N 51°54' W 127°56'4 7.8
2018-Apr-02 11:30N 51°50' W 127°56'4 7.7
2018-Apr-02 11:00N 51°47' W 127°55'4 8.0
2018-Apr-02 10:30N 51°43' W 127°55'4 8.1
2018-Apr-02 10:00N 51°39' W 127°54'4 8.1
2018-Apr-02 09:30N 51°35' W 127°52'4 7.8
2018-Apr-02 09:00N 51°31' W 127°51'4 7.7
2018-Apr-02 08:30N 51°27' W 127°51'5 7.8
2018-Apr-02 07:53N 51°22' W 127°51'3 7.6
2018-Apr-02 07:30N 51°19' W 127°51'5 7.5
2018-Apr-02 06:49N 51°14' W 127°51'4 7.2
2018-Apr-02 06:19N 51°11' W 127°50'2 6.5
2018-Apr-02 06:00N 51°09' W 127°48'3 6.5
2018-Apr-02 05:30N 51°07' W 127°44'4 7.3
2018-Apr-02 05:00N 51°04' W 127°40'4 7.2
2018-Apr-02 04:30N 51°01' W 127°36'4 7.5
2018-Apr-02 04:01N 50°59' W 127°32'4 7.7
2018-Apr-02 03:30N 50°56' W 127°27'4 7.8
2018-Apr-02 03:00N 50°54' W 127°23'4 7.9
2018-Apr-02 02:30N 50°52' W 127°17'4 8.1
2018-Apr-02 02:00N 50°50' W 127°12'4 8.4
2018-Apr-02 01:30N 50°48' W 127°06'4 8.2
2018-Apr-02 01:00N 50°45' W 127°01'65 7.7
2018-Apr-01 16:33N 50°20' W 125°26'4 9.3
2018-Apr-01 16:06N 50°16' W 125°24'1 9.6
2018-Apr-01 16:00N 50°16' W 125°23'5 9.7
2018-Apr-01 15:30N 50°11' W 125°22'510.5
2018-Apr-01 15:00N 50°06' W 125°18'510.8
2018-Apr-01 14:31N 50°02' W 125°13'5 9.3
2018-Apr-01 13:59N 49°58' W 125°09'3 6.5
2018-Apr-01 13:30N 49°55' W 125°06'4 8.0
2018-Apr-01 13:01N 49°53' W 125°02'4 7.9
2018-Apr-01 12:30N 49°50' W 124°57'4 7.6
2018-Apr-01 12:00N 49°47' W 124°53'4 7.1
2018-Apr-01 11:29N 49°45' W 124°49'4 7.1
2018-Apr-01 10:59N 49°42' W 124°45'4 7.9
2018-Apr-01 10:30N 49°39' W 124°41'6 7.7
2018-Apr-01 09:45N 49°35' W 124°35'46 8.0
2018-Apr-01 03:58N 49°10' W 123°35'11 7.7
2018-Apr-01 02:30N 49°04' W 123°21'31 8.2
2018-Mar-31 22:42N 48°44' W 122°44'2 9.6
2018-Mar-31 22:30N 48°42' W 122°43'5 9.2
2018-Mar-31 22:00N 48°37' W 122°44'5 9.5
2018-Mar-31 21:31N 48°33' W 122°45'5 8.9
2018-Mar-31 21:00N 48°28' W 122°44'30 8.0
2018-Mar-31 17:15N 47°59' W 122°35'310.1
2018-Mar-31 16:59N 47°57' W 122°32'4 9.0
2018-Mar-31 16:30N 47°53' W 122°28'4 8.7
2018-Mar-31 16:00N 47°49' W 122°26'4 8.4
2018-Mar-31 15:31N 47°45' W 122°25'4 8.1
2018-Mar-31 15:00N 47°41' W 122°25'1 2.1
2018-Mar-31 14:19N 47°40' W 122°23'0 0.1
2018-Mar-31 13:48N 47°40' W 122°23'0 0.1
2018-Mar-31 13:27N 47°40' W 122°23'0 0.0
2018-Mar-31 12:58N 47°40' W 122°23'0 0.0
2018-Mar-31 12:28N 47°40' W 122°23'0 0.1
2018-Mar-31 11:58N 47°40' W 122°23'0 0.1
2018-Mar-31 11:29N 47°40' W 122°23'0 0.1
2018-Mar-31 10:59N 47°40' W 122°23'0 0.0
2018-Mar-31 10:29N 47°40' W 122°23'0 0.1
2018-Mar-31 10:00N 47°40' W 122°23'0 0.1
2018-Mar-31 09:30N 47°40' W 122°23'0 0.0
2018-Mar-31 09:00N 47°40' W 122°23'0 0.1
2018-Mar-31 08:31N 47°40' W 122°23'0 0.0
2018-Mar-31 07:58N 47°40' W 122°23'0 0.0
2018-Mar-31 07:28N 47°40' W 122°23'0 0.0
2018-Mar-31 06:59N 47°40' W 122°23'0 0.0
2018-Mar-31 06:29N 47°40' W 122°23'0 0.0
2018-Mar-31 05:59N 47°40' W 122°23'0 0.0
2018-Mar-31 05:30N 47°40' W 122°23'0 0.1
2018-Mar-31 05:00N 47°40' W 122°23'0 0.0
2018-Mar-31 04:30N 47°40' W 122°23'0 0.0
2018-Mar-31 04:01N 47°40' W 122°23'0 0.1
2018-Mar-31 03:28N 47°40' W 122°23'0 0.1
2018-Mar-31 02:58N 47°40' W 122°23'0 0.1
2018-Mar-31 02:29N 47°40' W 122°23'0 0.1
2018-Mar-31 01:56N 47°40' W 122°23'0 0.0
2018-Mar-31 01:29N 47°40' W 122°23'0 0.0
2018-Mar-31 00:57N 47°40' W 122°23'0 0.0
2018-Mar-31 00:30N 47°40' W 122°23'0 0.0
2018-Mar-31 00:00N 47°40' W 122°23'0 0.0
2018-Mar-30 23:31N 47°40' W 122°23'0 0.0
2018-Mar-30 22:58N 47°40' W 122°23'0 0.0
2018-Mar-30 22:28N 47°40' W 122°23'0 0.1
2018-Mar-30 21:56N 47°40' W 122°23'0 0.0
2018-Mar-30 21:29N 47°40' W 122°23'0 0.0
2018-Mar-30 20:59N 47°40' W 122°23'0 0.0
2018-Mar-30 20:29N 47°40' W 122°23'0 0.0
2018-Mar-30 19:57N 47°40' W 122°23'0 0.0
2018-Mar-30 19:18N 47°40' W 122°23'0 0.0
2018-Mar-30 19:00N 47°40' W 122°23'0 0.1
2018-Mar-30 18:28N 47°40' W 122°23'0 0.0
2018-Mar-30 17:55N 47°40' W 122°23'0 0.1
2018-Mar-30 17:28N 47°40' W 122°23'0 0.1
2018-Mar-30 16:53N 47°40' W 122°23'0 0.1
2018-Mar-30 16:26N 47°40' W 122°23'0 0.0
2018-Mar-30 15:59N 47°40' W 122°23'0 0.0
2018-Mar-30 15:30N 47°40' W 122°23'0 0.1
2018-Mar-30 14:57N 47°40' W 122°23'0 0.1
2018-Mar-30 14:30N 47°40' W 122°23'0 0.0
2018-Mar-30 13:58N 47°40' W 122°23'0 0.0
2018-Mar-30 13:25N 47°40' W 122°23'0 0.1
2018-Mar-30 12:59N 47°40' W 122°23'0 0.1
2018-Mar-30 12:29N 47°40' W 122°23'0 0.1
2018-Mar-30 11:53N 47°40' W 122°23'0 0.0
2018-Mar-30 11:29N 47°40' W 122°23'0 0.1
2018-Mar-30 10:57N 47°40' W 122°23'0 0.0
2018-Mar-30 10:30N 47°40' W 122°23'0 0.1
2018-Mar-30 09:55N 47°40' W 122°23'0 0.1
2018-Mar-30 09:25N 47°40' W 122°23'0 0.0
2018-Mar-30 08:49N 47°40' W 122°23'0 0.1
2018-Mar-30 08:28N 47°40' W 122°23'0 0.0
2018-Mar-30 07:59N 47°40' W 122°23'0 0.1
2018-Mar-30 07:26N 47°40' W 122°23'0 0.0
2018-Mar-30 06:59N 47°40' W 122°23'0 0.1
2018-Mar-30 06:27N 47°40' W 122°23'0 0.1
2018-Mar-30 06:00N 47°40' W 122°23'0 0.0
2018-Mar-30 05:27N 47°40' W 122°23'0 0.0
2018-Mar-30 04:55N 47°40' W 122°23'0 0.0
2018-Mar-30 04:28N 47°40' W 122°23'0 0.1
2018-Mar-30 03:55N 47°40' W 122°23'0 0.0
2018-Mar-30 03:26N 47°40' W 122°23'0 0.0
2018-Mar-30 02:44N 47°40' W 122°23'0 0.2
2018-Mar-30 02:29N 47°40' W 122°23'0 0.0
2018-Mar-30 01:57N 47°40' W 122°23'0 0.0
2018-Mar-30 01:30N 47°40' W 122°23'0 0.1
2018-Mar-30 00:58N 47°40' W 122°23'0 0.1
2018-Mar-30 00:28N 47°40' W 122°23'0 0.1
2018-Mar-29 23:58N 47°40' W 122°23'0 0.0
2018-Mar-29 23:28N 47°40' W 122°23'0 0.0
2018-Mar-29 22:59N 47°40' W 122°23'0 0.1
2018-Mar-29 22:29N 47°40' W 122°23'0 0.0
2018-Mar-29 21:57N 47°40' W 122°23'0 0.0
2018-Mar-29 21:30N 47°40' W 122°23'0 0.1
2018-Mar-29 21:00N 47°40' W 122°23'0 0.1
2018-Mar-29 20:30N 47°40' W 122°23'0 0.0
2018-Mar-29 19:58N 47°40' W 122°23'0 0.1
2018-Mar-29 19:28N 47°40' W 122°23'0 0.1
2018-Mar-29 18:58N 47°40' W 122°23'0 0.0
2018-Mar-29 18:29N 47°40' W 122°23'0 0.1
2018-Mar-29 17:56N 47°40' W 122°23'0 0.1
2018-Mar-29 17:29N 47°40' W 122°23'0 0.1
2018-Mar-29 17:00N 47°40' W 122°23'0 0.1
2018-Mar-29 16:24N 47°40' W 122°23'0 0.0
2018-Mar-29 16:00N 47°40' W 122°23'0 0.0
2018-Mar-29 15:28N 47°40' W 122°23'0 0.1
2018-Mar-29 14:58N 47°40' W 122°23'0 0.0
2018-Mar-29 14:28N 47°40' W 122°23'0 0.1
2018-Mar-29 13:59N 47°40' W 122°23'0 0.0
2018-Mar-29 13:29N 47°40' W 122°23'0 0.0
2018-Mar-29 12:59N 47°40' W 122°23'0 0.0
2018-Mar-29 12:27N 47°40' W 122°23'0 0.1
2018-Mar-29 12:00N 47°40' W 122°23'0 0.1
2018-Mar-29 11:30N 47°40' W 122°23'0 0.0
2018-Mar-29 10:58N 47°40' W 122°23'0 0.0
2018-Mar-29 10:28N 47°40' W 122°23'0 0.0
2018-Mar-29 09:58N 47°40' W 122°23'0 0.0
2018-Mar-29 09:26N 47°40' W 122°23'0 0.0
2018-Mar-29 08:53N 47°40' W 122°23'0 0.0
2018-Mar-29 08:24N 47°40' W 122°23'0 0.0
2018-Mar-29 08:00N 47°40' W 122°23'0 0.0
2018-Mar-29 07:27N 47°40' W 122°23'0 0.1
2018-Mar-29 07:00N 47°40' W 122°23'0 0.0
2018-Mar-29 06:25N 47°40' W 122°23'0 0.1
2018-Mar-29 05:58N 47°40' W 122°23'0 0.1
2018-Mar-29 05:28N 47°40' W 122°23'0 0.0
2018-Mar-29 04:59N 47°40' W 122°23'0 0.0
2018-Mar-29 04:29N 47°40' W 122°23'0 0.0
2018-Mar-29 03:59N 47°40' W 122°23'0 0.0
2018-Mar-29 03:30N 47°40' W 122°23'0 0.0
2018-Mar-29 03:00N 47°40' W 122°23'0 0.1
2018-Mar-29 02:30N 47°40' W 122°23'0 0.0
2018-Mar-29 01:58N 47°40' W 122°23'0 0.1
2018-Mar-29 01:28N 47°40' W 122°23'0 0.0
2018-Mar-29 00:58N 47°40' W 122°23'0 0.0
2018-Mar-29 00:29N 47°40' W 122°23'0 0.0
2018-Mar-28 23:56N 47°40' W 122°23'0 0.1
2018-Mar-28 23:29N 47°40' W 122°23'0 0.1
2018-Mar-28 23:00N 47°40' W 122°23'0 0.0
2018-Mar-28 22:30N 47°40' W 122°23'0 0.0
2018-Mar-28 21:58N 47°40' W 122°23'0 0.1
2018-Mar-28 21:25N 47°40' W 122°23'0 0.1
2018-Mar-28 20:58N 47°40' W 122°23'0 0.0
2018-Mar-28 20:29N 47°40' W 122°23'  

Dump ship's entire track history